Hauptseite
METAR-TAF:

METAR-TAF

Flughäfen :

Flughafen Logroño

Logroño, Spanien

Breite: 42-27N, Länge: 002-20W, Höhe: 353 m

Beobachtung

Neuester Wetterbericht von vor 11 Minuten, um 21:00 UTC
Wind 5 kt aus West
Temperatur 2°C
Luftfeuchtigkeit 87%
Luftdruck 1018 hPa
Sichtweite 10 km oder mehr
Leicht bewölkt in der Höhe von 3000 ft

METAR: LELO 162100Z 26005KT 9999 FEW030 02/00 Q1018

Zeit: 22:11 (21:11 UTC)

Prognose

Neuester Wetterbericht von vor 1 Stunde und 21 Minuten, um 19:50 UTC
Gültige Prognose vom 16 um 19 UTC bis 17 um 03 UTC
Wind 4 kt aus unterschiedlichen Richtungen
Sichtweite 10 km oder mehr
Aufgelockert bewölkt in der Höhe von 1200 ft
Zeitweise
vom 16 um 19 UTC bis 17 um 03 UTC
Sichtweite: 2500 m
Durchbrochene Bewölkung in der Höhe von 600 ft
feuchter Dunst

TAF: LELO 161950Z 1619/1703 VRB04KT 9999 SCT012 TEMPO 1619/1703 2500 BR BKN006

Wetterbeobachtungen und Prognosen von mehr als 4000 Flughäfen (METAR und TAF Bericht).

Die verfügbaren Stationen werden durch gelbe und rote Markierungen auf der Karte dargestellt.

Führen Sie die Maus auf sie, um den Namen der Station zu sehen.

Darauf klicken, um die Beobachtung von Wetterbeobachtungen und Prognosen zu sehen.

Um die Karte zu ändern : klicken Sie auf den grünen Tasten mit einem schwarzen Kreuz Zum Vergrößern, auf den grünen Button mit einem Gedankenstrich zu verkleinern, oder auf die grünen Pfeile für benachbarte Karten.


METAR-TAF: